createdAt,value
2023-02-21T00:02:26.665Z,95308.31
2023-02-21T00:05:13.198Z,95308.91
2023-02-21T00:08:01.114Z,95311.69
2023-02-21T00:10:47.636Z,95304.56
2023-02-21T00:13:34.008Z,95300.13
2023-02-21T00:16:20.350Z,95307.75
2023-02-21T00:19:07.040Z,95303.41
2023-02-21T00:21:53.451Z,95307.25
2023-02-21T00:24:41.421Z,95309.22
2023-02-21T00:27:27.939Z,95321.25
2023-02-21T00:30:14.498Z,95315.66
2023-02-21T00:33:01.903Z,95306.34
2023-02-21T00:35:49.207Z,95319.63
2023-02-21T00:38:35.653Z,95319.63
2023-02-21T00:41:23.739Z,95313.03
2023-02-21T00:44:10.002Z,95304.50
2023-02-21T00:46:56.352Z,95296.38
2023-02-21T00:49:42.701Z,95290.34
2023-02-21T00:52:29.275Z,95282.97
2023-02-21T00:55:15.612Z,95274.38
2023-02-21T00:58:04.059Z,95264.44
2023-02-21T01:00:51.098Z,95253.88
2023-02-21T01:03:37.513Z,95249.75
2023-02-21T01:06:28.805Z,95244.94
2023-02-21T01:09:15.158Z,95243.31
2023-02-21T01:12:01.283Z,95238.16
2023-02-21T01:14:49.386Z,95231.47
2023-02-21T01:17:35.476Z,95232.00
2023-02-21T01:20:24.930Z,95227.22
2023-02-21T01:23:11.299Z,95223.50
2023-02-21T01:25:57.538Z,95218.59
2023-02-21T01:28:43.776Z,95216.16
2023-02-21T01:31:36.331Z,95215.28
2023-02-21T01:34:23.220Z,95222.03
2023-02-21T01:37:09.747Z,95222.38
2023-02-21T01:39:56.669Z,95212.81
2023-02-21T01:42:43.636Z,95208.69
2023-02-21T01:46:01.354Z,95211.31
2023-02-21T01:48:49.856Z,95198.41
2023-02-21T01:51:40.651Z,95197.31
2023-02-21T01:54:28.393Z,95195.09
2023-02-21T01:57:18.162Z,95190.94
2023-02-21T02:00:04.779Z,95180.97
2023-02-21T02:03:10.624Z,95173.59
2023-02-21T02:06:00.691Z,95178.00
2023-02-21T02:08:49.692Z,95185.69
2023-02-21T02:11:48.231Z,95182.66
2023-02-21T02:14:38.678Z,95188.13
2023-02-21T02:17:16.520Z,95169.13
2023-02-21T02:20:29.401Z,95163.53
2023-02-21T02:23:35.449Z,95167.38
2023-02-21T02:26:31.419Z,95162.66
2023-02-21T02:29:21.149Z,95163.91
2023-02-21T02:32:18.305Z,95169.53
2023-02-21T02:34:57.337Z,95174.34
2023-02-21T02:37:34.365Z,95171.97
2023-02-21T02:40:10.792Z,95167.63
2023-02-21T02:42:55.630Z,95171.91
2023-02-21T02:45:30.629Z,95176.06
2023-02-21T02:48:05.098Z,95171.72
2023-02-21T02:50:36.267Z,95171.09
2023-02-21T02:53:05.808Z,95168.47
2023-02-21T02:55:44.737Z,95162.16
2023-02-21T02:58:14.208Z,95159.13
2023-02-21T03:00:54.828Z,95156.50
2023-02-21T03:03:47.726Z,95154.69
2023-02-21T03:06:30.024Z,95159.63
2023-02-21T03:09:04.697Z,95152.00
2023-02-21T03:11:34.268Z,95149.81
2023-02-21T03:14:11.166Z,95153.50
2023-02-21T03:16:45.464Z,95146.25
2023-02-21T03:19:18.769Z,95155.38
2023-02-21T03:21:54.095Z,95149.50
2023-02-21T03:24:25.257Z,95156.53
2023-02-21T03:26:58.123Z,95156.72
2023-02-21T03:29:47.919Z,95156.69
2023-02-21T03:32:24.894Z,95157.88
2023-02-21T03:34:54.809Z,95154.25
2023-02-21T03:37:34.402Z,95158.06
2023-02-21T03:40:04.055Z,95155.06
2023-02-21T03:42:35.602Z,95159.03
2023-02-21T03:45:05.218Z,95151.25
2023-02-21T03:47:35.038Z,95159.56
2023-02-21T03:50:05.282Z,95154.38
2023-02-21T03:52:38.647Z,95159.06
2023-02-21T03:55:09.386Z,95159.78
2023-02-21T03:57:38.551Z,95164.41
2023-02-21T04:00:08.827Z,95165.03
2023-02-21T04:02:44.310Z,95155.03
2023-02-21T04:05:23.400Z,95161.47
2023-02-21T04:07:54.620Z,95160.66
2023-02-21T04:10:23.636Z,95164.38
2023-02-21T04:12:52.811Z,95169.28
2023-02-21T04:15:21.963Z,95176.50
2023-02-21T04:17:51.246Z,95168.47
2023-02-21T04:20:21.012Z,95180.00
2023-02-21T04:23:03.281Z,95177.38
2023-02-21T04:25:34.729Z,95189.47
2023-02-21T04:28:08.790Z,95180.81
2023-02-21T04:30:38.121Z,95185.00
2023-02-21T04:33:07.816Z,95188.25
2023-02-21T04:35:37.244Z,95197.47
2023-02-21T04:38:16.069Z,95187.00
2023-02-21T04:40:45.461Z,95195.47
2023-02-21T04:43:14.487Z,95189.97
2023-02-21T04:45:43.690Z,95191.19
2023-02-21T04:48:12.843Z,95181.75
2023-02-21T04:50:41.871Z,95178.78
2023-02-21T04:53:10.867Z,95187.16
2023-02-21T04:55:41.418Z,95183.56
2023-02-21T04:58:10.469Z,95179.69
2023-02-21T05:00:39.591Z,95172.94
2023-02-21T05:03:08.757Z,95166.97
2023-02-21T05:05:37.978Z,95168.16
2023-02-21T05:08:07.000Z,95175.22
2023-02-21T05:10:45.114Z,95179.22
2023-02-21T05:13:16.556Z,95175.16
2023-02-21T05:15:45.650Z,95174.34
2023-02-21T05:18:14.719Z,95168.06
2023-02-21T05:20:43.799Z,95166.81
2023-02-21T05:23:14.029Z,95160.59
2023-02-21T05:25:43.319Z,95157.59
2023-02-21T05:28:12.501Z,95152.63
2023-02-21T05:30:43.328Z,95152.44
2023-02-21T05:33:12.386Z,95151.91
2023-02-21T05:35:41.520Z,95156.22
2023-02-21T05:38:10.537Z,95159.63
2023-02-21T05:40:39.689Z,95158.66
2023-02-21T05:43:08.900Z,95166.72
2023-02-21T05:45:38.014Z,95170.88
2023-02-21T05:48:08.656Z,95172.44
2023-02-21T05:50:39.778Z,95180.25
2023-02-21T05:53:10.570Z,95190.28
2023-02-21T05:55:39.408Z,95191.09
2023-02-21T05:58:08.341Z,95193.28
2023-02-21T06:00:37.273Z,95201.72
2023-02-21T06:03:09.210Z,95194.97
2023-02-21T06:05:38.244Z,95199.31
2023-02-21T06:08:10.161Z,95198.78
2023-02-21T06:10:40.085Z,95196.50
2023-02-21T06:13:09.339Z,95196.19
2023-02-21T06:15:38.297Z,95199.88
2023-02-21T06:18:08.873Z,95204.38
2023-02-21T06:20:37.750Z,95197.56
2023-02-21T06:23:08.240Z,95203.66
2023-02-21T06:25:37.051Z,95202.84
2023-02-21T06:28:06.425Z,95201.84
2023-02-21T06:30:35.376Z,95197.53
2023-02-21T06:33:04.354Z,95207.84
2023-02-21T06:35:34.873Z,95203.53
2023-02-21T06:38:04.017Z,95200.47
2023-02-21T06:40:32.973Z,95192.84
2023-02-21T06:43:01.881Z,95203.75
2023-02-21T06:45:30.971Z,95208.69
2023-02-21T06:48:00.006Z,95198.84
2023-02-21T06:50:29.368Z,95199.72
2023-02-21T06:53:00.030Z,95213.63
2023-02-21T06:55:29.090Z,95204.88
2023-02-21T06:57:58.153Z,95214.31
2023-02-21T07:00:27.725Z,95210.41
2023-02-21T07:02:56.808Z,95216.94
2023-02-21T07:05:26.004Z,95217.78
2023-02-21T07:07:55.048Z,95221.09
2023-02-21T07:10:25.491Z,95228.00
2023-02-21T07:12:54.524Z,95221.25
2023-02-21T07:15:23.699Z,95205.28
2023-02-21T07:17:52.800Z,95214.59
2023-02-21T07:20:21.833Z,95214.44
2023-02-21T07:22:51.122Z,95213.88
2023-02-21T07:25:22.230Z,95214.69
2023-02-21T07:27:54.248Z,95204.06
2023-02-21T07:30:23.653Z,95208.06
2023-02-21T07:35:21.772Z,95196.91
2023-02-21T07:37:51.003Z,95183.66
2023-02-21T07:40:20.353Z,95182.19
2023-02-21T07:42:49.501Z,95185.63
2023-02-21T07:45:20.621Z,95181.97
2023-02-21T07:47:51.375Z,95176.06
2023-02-21T07:50:23.916Z,95184.97
2023-02-21T07:52:53.045Z,95184.78
2023-02-21T07:55:22.341Z,95175.31
2023-02-21T07:57:51.522Z,95177.19
2023-02-21T08:00:25.462Z,95173.72
2023-02-21T08:02:54.745Z,95176.25
2023-02-21T08:05:24.525Z,95161.69
2023-02-21T08:07:53.700Z,95153.78
2023-02-21T08:10:28.780Z,95156.25
2023-02-21T08:12:57.762Z,95149.53
2023-02-21T08:15:28.344Z,95142.88
2023-02-21T08:17:57.526Z,95148.53
2023-02-21T08:20:26.542Z,95155.50
2023-02-21T08:22:55.769Z,95143.47
2023-02-21T08:25:25.205Z,95135.16
2023-02-21T08:27:55.567Z,95145.31
2023-02-21T08:30:25.754Z,95142.66
2023-02-21T08:32:56.618Z,95146.97
2023-02-21T08:35:25.709Z,95147.72
2023-02-21T08:37:56.985Z,95136.19
2023-02-21T08:40:26.193Z,95133.38
2023-02-21T08:42:56.846Z,95135.41
2023-02-21T08:45:28.480Z,95131.47
2023-02-21T08:48:00.596Z,95140.34
2023-02-21T08:50:30.653Z,95132.88
2023-02-21T08:52:59.823Z,95128.16
2023-02-21T08:55:28.972Z,95123.59
2023-02-21T08:57:58.206Z,95125.09
2023-02-21T09:00:28.681Z,95124.56
2023-02-21T09:03:00.459Z,95124.78
2023-02-21T09:05:31.855Z,95112.44
2023-02-21T09:08:04.092Z,95119.91
2023-02-21T09:10:35.351Z,95109.66
2023-02-21T09:13:05.476Z,95104.59
2023-02-21T09:15:34.496Z,95115.19
2023-02-21T09:18:06.780Z,95117.06
2023-02-21T09:20:36.479Z,95110.06
2023-02-21T09:23:05.621Z,95112.88
2023-02-21T09:25:34.838Z,95107.53
2023-02-21T09:28:03.978Z,95105.13
2023-02-21T09:30:33.272Z,95104.47
2023-02-21T09:33:02.620Z,95098.03
2023-02-21T09:35:33.318Z,95107.72
2023-02-21T09:38:03.775Z,95106.31
2023-02-21T09:40:41.512Z,95098.66
2023-02-21T09:43:16.654Z,95089.81
2023-02-21T09:45:46.479Z,95093.19
2023-02-21T09:48:18.890Z,95091.63
2023-02-21T09:50:51.620Z,95089.03
2023-02-21T09:53:24.183Z,95091.28
2023-02-21T09:55:56.821Z,95079.50
2023-02-21T09:58:25.974Z,95088.34
2023-02-21T10:00:58.778Z,95073.50
2023-02-21T10:03:47.291Z,95066.50
2023-02-21T10:06:30.769Z,95075.88
2023-02-21T10:09:05.245Z,95072.56
2023-02-21T10:11:43.092Z,95054.66
2023-02-21T10:14:25.155Z,95055.66
2023-02-21T10:17:00.732Z,95050.44
2023-02-21T10:19:34.066Z,95053.75
2023-02-21T10:22:16.087Z,95051.34
2023-02-21T10:24:45.491Z,95047.78
2023-02-21T10:27:19.420Z,95050.22
2023-02-21T10:29:55.820Z,95044.00
2023-02-21T10:32:26.534Z,95036.06
2023-02-21T10:34:58.861Z,95033.25
2023-02-21T10:37:39.419Z,95025.63
2023-02-21T10:40:24.676Z,95019.94
2023-02-21T10:42:58.528Z,95013.94
2023-02-21T10:45:37.026Z,95009.59
2023-02-21T10:48:08.214Z,95001.94
2023-02-21T10:50:51.018Z,94998.38
2023-02-21T10:53:31.744Z,94986.19
2023-02-21T10:56:21.654Z,94983.03
2023-02-21T10:58:53.658Z,94972.59
2023-02-21T11:01:32.263Z,94970.13
2023-02-21T11:04:04.109Z,94962.25
2023-02-21T11:06:39.069Z,94966.41
2023-02-21T11:09:33.118Z,94960.91
2023-02-21T11:12:04.714Z,94955.38
2023-02-21T11:14:34.919Z,94940.94
2023-02-21T11:17:18.867Z,94947.31
2023-02-21T11:19:53.714Z,94941.09
2023-02-21T11:22:25.738Z,94943.25
2023-02-21T11:25:09.951Z,94936.75
2023-02-21T11:27:40.224Z,94942.06
2023-02-21T11:30:16.037Z,94933.78
2023-02-21T11:32:52.118Z,94919.81
2023-02-21T11:35:28.232Z,94919.63
2023-02-21T11:37:59.642Z,94905.50
2023-02-21T11:40:35.801Z,94907.34
2023-02-21T11:43:23.207Z,94896.03
2023-02-21T11:46:02.806Z,94905.34
2023-02-21T11:48:37.141Z,94893.69
2023-02-21T11:51:15.652Z,94893.88
2023-02-21T11:53:45.929Z,94882.56
2023-02-21T11:56:36.061Z,94882.59
2023-02-21T11:59:14.913Z,94883.41
2023-02-21T12:01:52.149Z,94877.19
2023-02-21T12:04:38.145Z,94875.56
2023-02-21T12:07:18.774Z,94860.78
2023-02-21T12:09:55.670Z,94862.69
2023-02-21T12:12:39.845Z,94853.34
2023-02-21T12:15:22.153Z,94841.41
2023-02-21T12:18:01.494Z,94841.88
2023-02-21T12:20:48.047Z,94835.50
2023-02-21T12:23:25.466Z,94830.72
2023-02-21T12:26:08.671Z,94821.72
2023-02-21T12:28:53.440Z,94826.84
2023-02-21T12:31:35.169Z,94827.13
2023-02-21T12:34:19.075Z,94828.22
2023-02-21T12:37:08.139Z,94818.25
2023-02-21T12:39:58.003Z,94812.41
2023-02-21T12:42:42.744Z,94810.94
2023-02-21T12:45:29.717Z,94802.34
2023-02-21T12:48:04.047Z,94807.72
2023-02-21T12:50:38.248Z,94804.50
2023-02-21T12:53:12.896Z,94800.00
2023-02-21T12:55:47.168Z,94807.16
2023-02-21T12:58:25.672Z,94793.97
2023-02-21T13:01:00.229Z,94792.47
2023-02-21T13:03:42.009Z,94796.56
2023-02-21T13:06:20.099Z,94793.94
2023-02-21T13:09:11.978Z,94783.34
2023-02-21T13:11:48.802Z,94782.91
2023-02-21T13:14:22.312Z,94781.75
2023-02-21T13:19:24.487Z,94772.19
2023-02-21T13:22:08.350Z,94765.28
2023-02-21T13:25:07.670Z,94761.31
2023-02-21T13:27:50.743Z,94760.50
2023-02-21T13:30:25.371Z,94764.72
2023-02-21T13:32:58.741Z,94755.44
2023-02-21T13:35:32.859Z,94764.09
2023-02-21T13:38:03.576Z,94756.47
2023-02-21T13:40:39.475Z,94750.75
2023-02-21T13:43:14.283Z,94745.06
2023-02-21T13:45:46.998Z,94745.38
2023-02-21T13:48:35.123Z,94738.22
2023-02-21T13:51:05.290Z,94734.94
2023-02-21T13:53:55.196Z,94742.94
2023-02-21T13:56:41.838Z,94745.69
2023-02-21T13:59:40.540Z,94732.41
2023-02-21T14:02:22.452Z,94738.97
2023-02-21T14:05:15.842Z,94734.66
2023-02-21T14:07:53.785Z,94741.94
2023-02-21T14:10:34.565Z,94738.88
2023-02-21T14:13:08.259Z,94729.41
2023-02-21T14:15:46.595Z,94730.00
2023-02-21T14:18:29.317Z,94734.41
2023-02-21T14:21:01.140Z,94728.19
2023-02-21T14:23:43.629Z,94737.88
2023-02-21T14:26:38.449Z,94741.34
2023-02-21T14:29:36.025Z,94733.59
2023-02-21T14:32:33.924Z,94737.47
2023-02-21T14:35:14.644Z,94730.28
2023-02-21T14:37:53.393Z,94733.50
2023-02-21T14:40:35.406Z,94734.97
2023-02-21T14:43:43.528Z,94736.97
2023-02-21T14:46:34.730Z,94728.91
2023-02-21T14:49:29.717Z,94736.97
2023-02-21T14:52:30.131Z,94728.75
2023-02-21T14:55:52.633Z,94733.81
2023-02-21T14:58:54.166Z,94723.16
2023-02-21T15:01:42.675Z,94725.66
2023-02-21T15:04:22.383Z,94728.25
2023-02-21T15:07:06.390Z,94716.41
2023-02-21T15:09:35.810Z,94712.06
2023-02-21T15:12:11.175Z,94720.50
2023-02-21T15:14:43.292Z,94721.38
2023-02-21T15:17:14.939Z,94717.28
2023-02-21T15:19:44.909Z,94723.47
2023-02-21T15:22:25.410Z,94718.34
2023-02-21T15:25:21.242Z,94722.97
2023-02-21T15:28:07.360Z,94723.75
2023-02-21T15:30:42.549Z,94728.19
2023-02-21T15:33:18.628Z,94725.16
2023-02-21T15:35:55.113Z,94729.50
2023-02-21T15:38:29.525Z,94733.50
2023-02-21T15:41:04.348Z,94739.41
2023-02-21T15:43:42.830Z,94735.03
2023-02-21T15:46:17.352Z,94735.41
2023-02-21T15:48:47.323Z,94734.03
2023-02-21T15:51:17.607Z,94736.81
2023-02-21T15:54:24.944Z,94734.50
2023-02-21T15:57:07.380Z,94746.56
2023-02-21T15:59:43.300Z,94737.47
2023-02-21T16:02:22.853Z,94745.84
2023-02-21T16:04:53.688Z,94748.84
2023-02-21T16:07:30.546Z,94742.75
2023-02-21T16:10:02.546Z,94746.25
2023-02-21T16:12:36.997Z,94740.44
2023-02-21T16:15:23.120Z,94745.25
2023-02-21T16:17:56.300Z,94745.56
2023-02-21T16:20:28.487Z,94748.25
2023-02-21T16:23:23.600Z,94750.75
2023-02-21T16:26:01.712Z,94750.47
2023-02-21T16:28:32.710Z,94750.75
2023-02-21T16:31:04.943Z,94753.47
2023-02-21T16:33:35.229Z,94763.41
2023-02-21T16:36:10.046Z,94760.22
2023-02-21T16:38:39.282Z,94762.66
2023-02-21T16:41:15.995Z,94767.47
2023-02-21T16:43:45.738Z,94769.63
2023-02-21T16:46:17.371Z,94764.06
2023-02-21T16:48:46.732Z,94767.50
2023-02-21T16:51:16.917Z,94775.72
2023-02-21T16:53:47.047Z,94775.09
2023-02-21T16:56:16.826Z,94775.03
2023-02-21T16:58:50.829Z,94770.66
2023-02-21T17:01:29.793Z,94772.22
2023-02-21T17:03:59.356Z,94774.81
2023-02-21T17:06:29.395Z,94776.09
2023-02-21T17:08:59.370Z,94773.41
2023-02-21T17:11:28.885Z,94779.47
2023-02-21T17:13:58.158Z,94783.19
2023-02-21T17:16:28.872Z,94781.34
2023-02-21T17:18:58.302Z,94781.56
2023-02-21T17:21:27.592Z,94776.50
2023-02-21T17:23:57.744Z,94784.75
2023-02-21T17:26:27.167Z,94779.66
2023-02-21T17:28:56.562Z,94787.81
2023-02-21T17:31:25.929Z,94785.38
2023-02-21T17:33:56.721Z,94788.91
2023-02-21T17:36:28.731Z,94781.13
2023-02-21T17:38:59.083Z,94777.34
2023-02-21T17:41:29.368Z,94780.41
2023-02-21T17:43:58.530Z,94789.16
2023-02-21T17:46:27.844Z,94787.97
2023-02-21T17:48:58.645Z,94792.91
2023-02-21T17:51:28.463Z,94796.66
2023-02-21T17:53:58.183Z,94790.28
2023-02-21T17:56:27.564Z,94797.03
2023-02-21T17:58:57.676Z,94792.59
2023-02-21T18:01:28.690Z,94802.56
2023-02-21T18:04:01.464Z,94798.31
2023-02-21T18:06:31.469Z,94814.81
2023-02-21T18:09:00.971Z,94805.75
2023-02-21T18:11:30.373Z,94800.38
2023-02-21T18:13:59.964Z,94804.88
2023-02-21T18:16:29.112Z,94808.34
2023-02-21T18:19:00.088Z,94808.25
2023-02-21T18:21:29.412Z,94811.72
2023-02-21T18:23:58.770Z,94806.16
2023-02-21T18:26:28.067Z,94806.66
2023-02-21T18:28:57.360Z,94818.25
2023-02-21T18:31:26.495Z,94814.84
2023-02-21T18:33:55.913Z,94811.25
2023-02-21T18:36:26.924Z,94811.00
2023-02-21T18:38:56.267Z,94817.06
2023-02-21T18:41:25.432Z,94812.13
2023-02-21T18:43:54.556Z,94820.09
2023-02-21T18:46:24.407Z,94825.16
2023-02-21T18:48:53.937Z,94833.63
2023-02-21T18:51:23.223Z,94828.16
2023-02-21T18:53:53.871Z,94823.25
2023-02-21T18:56:23.147Z,94831.91
2023-02-21T18:58:52.328Z,94827.66
2023-02-21T19:01:25.158Z,94820.19
2023-02-21T19:03:56.180Z,94828.94
2023-02-21T19:06:26.697Z,94822.50
2023-02-21T19:08:57.564Z,94830.91
2023-02-21T19:11:27.117Z,94829.22
2023-02-21T19:13:56.357Z,94832.81
2023-02-21T19:16:25.916Z,94831.34
2023-02-21T19:18:56.778Z,94835.97
2023-02-21T19:21:26.966Z,94849.00
2023-02-21T19:23:57.604Z,94854.19
2023-02-21T19:26:29.688Z,94847.97
2023-02-21T19:28:58.897Z,94852.56
2023-02-21T19:31:28.294Z,94848.81
2023-02-21T19:34:00.052Z,94850.63
2023-02-21T19:36:29.677Z,94850.88
2023-02-21T19:39:00.306Z,94849.84
2023-02-21T19:41:29.751Z,94850.63
2023-02-21T19:43:59.084Z,94859.94
2023-02-21T19:46:30.434Z,94854.41
2023-02-21T19:48:59.970Z,94853.63
2023-02-21T19:51:31.870Z,94857.56
2023-02-21T19:54:03.012Z,94858.22
2023-02-21T19:56:32.454Z,94849.94
2023-02-21T19:59:01.928Z,94863.06
2023-02-21T20:01:32.828Z,94856.97
2023-02-21T20:04:03.330Z,94864.91
2023-02-21T20:06:35.618Z,94863.59
2023-02-21T20:09:09.033Z,94864.66
2023-02-21T20:11:40.578Z,94864.09
2023-02-21T20:14:10.099Z,94862.03
2023-02-21T20:16:40.361Z,94856.97
2023-02-21T20:19:11.258Z,94861.00
2023-02-21T20:21:40.502Z,94869.97
2023-02-21T20:24:14.112Z,94871.00
2023-02-21T20:26:43.273Z,94867.78
2023-02-21T20:29:12.702Z,94858.91
2023-02-21T20:31:42.258Z,94861.09
2023-02-21T20:34:11.589Z,94863.41
2023-02-21T20:36:42.889Z,94858.00
2023-02-21T20:39:23.121Z,94866.16
2023-02-21T20:41:53.222Z,94862.94
2023-02-21T20:44:22.657Z,94860.53
2023-02-21T20:46:52.037Z,94856.06
2023-02-21T20:49:21.906Z,94854.44
2023-02-21T20:51:51.128Z,94854.44
2023-02-21T20:54:23.236Z,94854.34
2023-02-21T20:56:54.342Z,94857.44
2023-02-21T20:59:25.020Z,94842.50
2023-02-21T21:01:54.650Z,94848.56
2023-02-21T21:04:27.133Z,94843.66
2023-02-21T21:06:57.227Z,94851.34
2023-02-21T21:09:34.671Z,94851.81
2023-02-21T21:12:05.224Z,94849.72
2023-02-21T21:14:36.820Z,94852.38
2023-02-21T21:17:06.429Z,94839.63
2023-02-21T21:19:37.212Z,94845.03
2023-02-21T21:22:09.265Z,94847.31
2023-02-21T21:24:40.728Z,94844.56
2023-02-21T21:27:11.336Z,94843.19
2023-02-21T21:29:41.862Z,94847.88
2023-02-21T21:32:11.653Z,94850.84
2023-02-21T21:34:45.106Z,94849.25
2023-02-21T21:37:14.796Z,94838.09
2023-02-21T21:39:49.613Z,94847.41
2023-02-21T21:42:19.711Z,94846.59
2023-02-21T21:44:52.199Z,94841.91
2023-02-21T21:47:23.021Z,94841.31
2023-02-21T21:49:52.752Z,94846.03
2023-02-21T21:52:23.993Z,94837.53
2023-02-21T21:54:54.613Z,94837.78
2023-02-21T21:57:27.230Z,94838.66
2023-02-21T21:59:57.450Z,94834.84
2023-02-21T22:02:26.686Z,94835.78
2023-02-21T22:04:55.823Z,94824.53
2023-02-21T22:07:24.925Z,94832.88
2023-02-21T22:09:55.639Z,94827.38
2023-02-21T22:12:24.636Z,94830.69
2023-02-21T22:14:56.184Z,94831.59
2023-02-21T22:17:25.261Z,94831.59
2023-02-21T22:19:56.084Z,94834.09
2023-02-21T22:22:25.442Z,94833.53
2023-02-21T22:24:56.137Z,94831.56
2023-02-21T22:27:25.250Z,94831.44
2023-02-21T22:29:54.423Z,94845.19
2023-02-21T22:32:23.553Z,94852.16
2023-02-21T22:34:53.010Z,94849.22
2023-02-21T22:37:23.040Z,94852.34
2023-02-21T22:39:52.077Z,94853.69
2023-02-21T22:42:23.083Z,94861.28
2023-02-21T22:44:52.330Z,94862.09
2023-02-21T22:47:21.661Z,94853.13
2023-02-21T22:49:50.750Z,94858.47
2023-02-21T22:52:19.768Z,94859.06
2023-02-21T22:54:49.376Z,94855.72
2023-02-21T22:57:19.306Z,94856.06
2023-02-21T22:59:51.313Z,94858.00
2023-02-21T23:02:22.728Z,94853.38
2023-02-21T23:04:51.866Z,94851.31
2023-02-21T23:07:24.830Z,94855.88
2023-02-21T23:09:53.861Z,94850.59
2023-02-21T23:12:22.993Z,94856.31
2023-02-21T23:14:53.957Z,94856.75
2023-02-21T23:17:22.935Z,94855.16
2023-02-21T23:19:52.084Z,94855.31
2023-02-21T23:22:21.153Z,94854.94
2023-02-21T23:24:50.187Z,94859.84
2023-02-21T23:27:21.334Z,94852.72
2023-02-21T23:29:50.551Z,94849.50
2023-02-21T23:32:21.078Z,94851.13
2023-02-21T23:34:50.966Z,94848.81
2023-02-21T23:37:19.969Z,94851.53
2023-02-21T23:39:49.079Z,94860.88
2023-02-21T23:42:18.197Z,94860.25
2023-02-21T23:44:50.998Z,94855.59
2023-02-21T23:47:21.567Z,94851.47
2023-02-21T23:49:50.595Z,94848.28
2023-02-21T23:52:22.944Z,94845.56
2023-02-21T23:54:55.536Z,94845.56
2023-02-21T23:57:25.039Z,94841.22
2023-02-21T23:59:54.145Z,94858.97
